Time;durP1;ratioP1;P1;durP2;ratioP2;P2;SDS_P1;SDS_P2;PMS_P1;PMS_P2;Temp;Humidity;BMP_temperature;BMP_pressure;BME280_temperature;BME280_humidity;BME280_pressure;Samples;Min_cycle;Max_cycle;Signal;HPM_P1;HPM_P2
2023/07/04 00:00:33;;;;;;;11.00;10.00;;;;;;;22.14;63.37;100054.95;105862;1257;67631;-73
2023/07/04 00:03:00;;;;;;;10.90;9.80;;;;;;;22.16;63.24;100058.67;105843;1254;61349;-74
2023/07/04 00:05:28;;;;;;;10.60;9.60;;;;;;;22.17;63.27;100061.45;105943;1254;64037;-73
2023/07/04 00:07:55;;;;;;;11.00;9.90;;;;;;;22.18;63.29;100061.98;105927;1254;61227;-74
2023/07/04 00:10:21;;;;;;;10.70;9.60;;;;;;;22.17;63.44;100057.55;106068;1254;61208;-73
2023/07/04 00:12:49;;;;;;;13.80;9.90;;;;;;;22.18;63.29;100059.70;106047;1257;65998;-73
2023/07/04 00:15:15;;;;;;;11.50;10.40;;;;;;;22.18;63.22;100062.85;105952;1253;61325;-73
2023/07/04 00:17:42;;;;;;;11.40;10.30;;;;;;;22.18;63.15;100062.11;106011;1252;63991;-73
2023/07/04 00:20:10;;;;;;;11.20;10.10;;;;;;;22.12;63.26;100060.65;106013;1254;61356;-74
2023/07/04 00:22:36;;;;;;;11.40;10.20;;;;;;;22.06;63.26;100061.73;106036;1253;61247;-71
2023/07/04 00:25:04;;;;;;;11.20;10.10;;;;;;;22.05;63.25;100063.84;105868;1254;65048;-74
2023/07/04 00:27:32;;;;;;;11.70;10.60;;;;;;;22.02;63.26;100064.86;106119;1254;61246;-72
2023/07/04 00:29:59;;;;;;;10.90;9.90;;;;;;;21.96;63.37;100064.93;105948;1256;63878;-72
2023/07/04 00:32:26;;;;;;;10.40;9.40;;;;;;;21.89;63.50;100070.42;105869;1259;61319;-72
2023/07/04 00:34:52;;;;;;;10.30;9.30;;;;;;;21.84;63.66;100070.98;105930;1254;61221;-72
2023/07/04 00:37:21;;;;;;;10.70;9.20;;;;;;;21.84;63.84;100073.19;105925;1254;61106;-72
2023/07/04 00:39:49;;;;;;;10.10;9.10;;;;;;;21.82;63.88;100074.70;105645;1260;61327;-71
2023/07/04 00:42:15;;;;;;;9.30;8.40;;;;;;;21.79;63.96;100069.14;106041;1256;62490;-71
2023/07/04 00:44:47;;;;;;;9.70;8.70;;;;;;;21.81;64.08;100069.27;105868;1253;61307;-72
2023/07/04 00:47:21;;;;;;;10.20;8.90;;;;;;;21.81;64.03;100070.31;105992;1256;61246;-72
2023/07/04 00:49:49;;;;;;;9.10;8.10;;;;;;;21.82;63.90;100070.16;106010;1254;65980;-72
2023/07/04 00:52:23;;;;;;;9.10;8.20;;;;;;;21.83;63.95;100073.06;105886;1254;61272;-72
2023/07/04 00:54:57;;;;;;;9.00;8.10;;;;;;;21.86;63.76;100076.70;106030;1253;62805;-72
2023/07/04 00:57:27;;;;;;;8.60;7.80;;;;;;;21.86;63.74;100076.95;105884;1254;61342;-72
2023/07/04 00:59:58;;;;;;;7.90;7.20;;;;;;;21.88;63.56;100077.64;106078;1254;61298;-72
2023/07/04 01:02:29;;;;;;;7.90;7.20;;;;;;;21.93;63.37;100079.48;105912;1256;66043;-72
2023/07/04 01:04:56;;;;;;;7.50;6.60;;;;;;;21.99;63.12;100074.99;105981;1252;61330;-72
2023/07/04 01:07:40;;;;;;;9.40;7.40;;;;;;;22.03;62.94;100076.13;105831;1259;64088;-72
2023/07/04 01:10:10;;;;;;;8.10;6.90;;;;;;;22.08;62.65;100081.75;105883;1254;61421;-72
2023/07/04 01:12:39;;;;;;;7.80;7.00;;;;;;;22.14;62.54;100084.58;105840;1252;61234;-72
2023/07/04 01:15:07;;;;;;;7.70;7.00;;;;;;;22.19;62.27;100088.36;105818;1257;66077;-72
2023/07/04 01:17:35;;;;;;;7.80;7.00;;;;;;;22.22;62.05;100087.37;105939;1253;61114;-72
2023/07/04 01:20:03;;;;;;;8.70;7.80;;;;;;;22.24;61.96;100090.68;105739;1254;63699;-72
2023/07/04 01:22:33;;;;;;;7.90;7.20;;;;;;;22.25;61.84;100094.04;105687;1258;61237;-72
2023/07/04 01:25:09;;;;;;;7.90;7.10;;;;;;;22.25;61.69;100096.85;105708;1258;61189;-72
2023/07/04 01:27:40;;;;;;;8.90;7.60;;;;;;;22.25;61.67;100098.79;105577;1259;65827;-72
2023/07/04 01:30:08;;;;;;;7.80;7.00;;;;;;;22.25;61.35;100104.21;105883;1253;61355;-72
2023/07/04 01:32:41;;;;;;;7.80;7.00;;;;;;;22.24;61.27;100103.64;105482;1254;64069;-72
2023/07/04 01:35:11;;;;;;;8.80;7.60;;;;;;;22.21;61.25;100099.61;105870;1259;61257;-72
2023/07/04 01:37:38;;;;;;;9.90;7.50;;;;;;;22.15;61.33;100100.59;105984;1257;61285;-72
2023/07/04 01:40:08;;;;;;;7.80;7.10;;;;;;;22.08;61.17;100106.39;105950;1256;65810;-72
2023/07/04 01:42:36;;;;;;;8.60;7.20;;;;;;;22.02;61.16;100103.17;105935;1256;61339;-72
2023/07/04 01:45:05;;;;;;;7.60;6.80;;;;;;;21.99;61.23;100102.09;105637;1254;64007;-72
2023/07/04 01:47:33;;;;;;;8.00;7.20;;;;;;;21.96;61.29;100106.97;106003;1254;61284;-72
2023/07/04 01:50:00;;;;;;;8.10;7.40;;;;;;;21.93;61.29;100112.64;106091;1254;61148;-72
2023/07/04 01:52:27;;;;;;;9.50;7.60;;;;;;;21.89;61.26;100112.45;105739;1256;65919;-72
2023/07/04 01:54:55;;;;;;;8.00;7.20;;;;;;;21.86;61.41;100110.45;105633;1254;61339;-72
2023/07/04 01:57:21;;;;;;;9.60;7.30;;;;;;;21.85;61.53;100115.74;105626;1254;63786;-72
2023/07/04 01:59:48;;;;;;;8.40;7.60;;;;;;;21.86;61.62;100118.02;105599;1256;61339;-72
2023/07/04 02:02:15;;;;;;;8.70;7.80;;;;;;;21.89;61.81;100118.23;105911;1254;61250;-72
2023/07/04 02:04:42;;;;;;;8.50;7.50;;;;;;;21.92;62.04;100122.80;105824;1256;65807;-72
2023/07/04 02:07:11;;;;;;;8.70;7.80;;;;;;;21.95;61.96;100125.38;105797;1256;61252;-72
2023/07/04 02:09:38;;;;;;;8.50;7.60;;;;;;;21.98;62.00;100122.93;105809;1254;64091;-72
2023/07/04 02:12:05;;;;;;;8.80;8.00;;;;;;;22.01;62.24;100122.33;105840;1252;61197;-73
2023/07/04 02:14:32;;;;;;;10.90;8.00;;;;;;;22.04;62.26;100121.89;105840;1254;61272;-73
2023/07/04 02:16:59;;;;;;;8.40;7.60;;;;;;;22.07;62.28;100125.54;105616;1259;61205;-73
2023/07/04 02:19:26;;;;;;;8.30;7.50;;;;;;;22.05;62.33;100127.36;105763;1254;61342;-73
2023/07/04 02:21:52;;;;;;;8.10;7.30;;;;;;;22.04;62.28;100129.13;105668;1254;63798;-73
2023/07/04 02:24:19;;;;;;;8.10;7.30;;;;;;;22.00;62.17;100131.02;105716;1256;61263;-77
2023/07/04 02:26:46;;;;;;;8.50;7.60;;;;;;;21.98;62.24;100136.63;105767;1254;61253;-73
2023/07/04 02:29:13;;;;;;;8.30;7.10;;;;;;;21.97;62.29;100141.67;105637;1258;64536;-72
2023/07/04 02:31:40;;;;;;;8.40;7.60;;;;;;;21.95;62.30;100141.64;105744;1255;61317;-77
2023/07/04 02:34:07;;;;;;;7.90;7.20;;;;;;;21.93;62.39;100144.04;105813;1254;64180;-73
2023/07/04 02:36:34;;;;;;;8.30;7.50;;;;;;;21.92;62.57;100147.92;105697;1256;61240;-72
2023/07/04 02:39:01;;;;;;;8.90;8.10;;;;;;;21.94;62.58;100148.84;105670;1254;61283;-72
2023/07/04 02:41:29;;;;;;;8.30;7.50;;;;;;;21.96;62.65;100148.71;105599;1254;64944;-72
2023/07/04 02:43:57;;;;;;;8.30;7.40;;;;;;;21.98;62.72;100148.63;105933;1254;61426;-72
2023/07/04 02:46:23;;;;;;;8.80;7.90;;;;;;;22.02;62.82;100152.54;105865;1254;64513;-73
2023/07/04 02:48:54;;;;;;;8.90;8.00;;;;;;;22.06;62.74;100153.94;105747;1254;61238;-73
2023/07/04 02:51:20;;;;;;;9.40;8.50;;;;;;;22.14;62.86;100157.45;105892;1254;61229;-74
2023/07/04 02:53:47;;;;;;;9.30;8.00;;;;;;;22.19;62.74;100155.98;105762;1256;66080;-73
2023/07/04 02:56:14;;;;;;;9.10;8.20;;;;;;;22.24;62.71;100160.63;105886;1254;61298;-72
2023/07/04 02:58:40;;;;;;;9.10;8.20;;;;;;;22.27;62.77;100162.40;105817;1254;64054;-72
2023/07/04 03:01:07;;;;;;;9.40;8.10;;;;;;;22.30;62.91;100164.54;105770;1254;61330;-73
2023/07/04 03:03:35;;;;;;;8.70;7.90;;;;;;;22.35;63.06;100168.77;105777;1254;61298;-72
2023/07/04 03:06:04;;;;;;;8.90;8.10;;;;;;;22.40;63.13;100170.45;106077;1256;66057;-72
2023/07/04 03:08:33;;;;;;;10.70;8.10;;;;;;;22.47;62.93;100173.48;105801;1254;61384;-72
2023/07/04 03:11:00;;;;;;;8.40;7.60;;;;;;;22.52;62.95;100174.70;105853;1254;64057;-74
2023/07/04 03:13:29;;;;;;;8.80;8.00;;;;;;;22.58;62.90;100174.66;105906;1251;61305;-73
2023/07/04 03:15:57;;;;;;;8.70;7.90;;;;;;;22.65;62.75;100172.30;106046;1251;61259;-72
2023/07/04 03:18:23;;;;;;;9.00;7.90;;;;;;;22.70;62.53;100170.36;105833;1255;65788;-74
2023/07/04 03:20:50;;;;;;;8.50;7.70;;;;;;;22.74;62.46;100170.73;105975;1254;61275;-72
2023/07/04 03:23:18;;;;;;;8.70;7.90;;;;;;;22.77;62.29;100172.23;106047;1253;62637;-72
2023/07/04 03:25:44;;;;;;;9.40;7.80;;;;;;;22.81;62.22;100175.19;106057;1254;61308;-72
2023/07/04 03:28:12;;;;;;;9.90;7.80;;;;;;;22.85;62.00;100177.35;106111;1252;61240;-72
2023/07/04 03:30:38;;;;;;;8.20;7.40;;;;;;;22.89;61.98;100176.63;105646;1258;65715;-72
2023/07/04 03:33:08;;;;;;;9.30;7.60;;;;;;;22.92;61.90;100180.06;105839;1254;61303;-72
2023/07/04 03:35:38;;;;;;;9.10;8.20;;;;;;;22.92;61.93;100181.60;105668;1257;62456;-72
2023/07/04 03:38:26;;;;;;;9.20;8.10;;;;;;;22.92;62.01;100182.99;105816;1253;61333;-72
2023/07/04 03:40:52;;;;;;;12.00;8.00;;;;;;;22.94;62.03;100180.43;105774;1256;61314;-73
2023/07/04 03:43:22;;;;;;;8.70;7.90;;;;;;;22.97;61.98;100177.70;106069;1252;64646;-72
2023/07/04 03:45:49;;;;;;;8.80;7.90;;;;;;;23.01;62.04;100173.80;105806;1254;61227;-72
2023/07/04 03:48:16;;;;;;;11.10;7.70;;;;;;;23.04;61.94;100175.58;105631;1254;63931;-72
2023/07/04 03:50:44;;;;;;;8.90;7.90;;;;;;;23.09;61.94;100175.50;105797;1253;61286;-72
2023/07/04 03:53:11;;;;;;;8.60;7.70;;;;;;;23.14;61.90;100175.95;105877;1254;61260;-72
2023/07/04 03:55:37;;;;;;;9.80;7.70;;;;;;;23.20;61.79;100172.30;105719;1258;66043;-72
2023/07/04 03:58:05;;;;;;;9.90;8.20;;;;;;;23.24;61.69;100170.55;105936;1253;61333;-72
2023/07/04 04:00:32;;;;;;;8.30;7.50;;;;;;;23.31;61.55;100171.84;105945;1254;63822;-72
2023/07/04 04:03:02;;;;;;;10.30;7.40;;;;;;;23.37;61.35;100173.98;106055;1253;61362;-73
2023/07/04 04:05:29;;;;;;;8.00;7.10;;;;;;;23.43;60.87;100176.83;105755;1258;61250;-72
2023/07/04 04:07:56;;;;;;;10.30;6.40;;;;;;;23.48;60.40;100181.47;106020;1256;66020;-72
2023/07/04 04:10:22;;;;;;;8.50;6.80;;;;;;;23.54;59.92;100182.32;106012;1257;61352;-72
2023/07/04 04:12:49;;;;;;;6.90;6.20;;;;;;;23.62;59.45;100182.12;105986;1253;63863;-72
2023/07/04 04:15:16;;;;;;;7.30;6.40;;;;;;;23.68;59.17;100179.50;105769;1254;61319;-72
2023/07/04 04:17:42;;;;;;;6.80;5.90;;;;;;;23.75;58.77;100183.25;106026;1253;61358;-72
2023/07/04 04:20:10;;;;;;;7.90;6.50;;;;;;;23.82;58.55;100186.84;106043;1253;65716;-72
2023/07/04 04:22:44;;;;;;;7.40;6.40;;;;;;;23.89;58.41;100184.82;106791;1253;61205;-72
2023/07/04 04:25:12;;;;;;;7.60;6.20;;;;;;;23.94;58.15;100185.59;105810;1256;62660;-72
2023/07/04 04:27:39;;;;;;;6.80;6.20;;;;;;;23.98;57.96;100187.52;105814;1254;61365;-72
2023/07/04 04:30:13;;;;;;;7.80;6.10;;;;;;;24.04;57.52;100185.21;105936;1254;61320;-72
2023/07/04 04:32:40;;;;;;;7.10;6.40;;;;;;;24.12;57.37;100184.95;105854;1256;66049;-72
2023/07/04 04:35:11;;;;;;;7.10;5.80;;;;;;;24.18;57.19;100185.44;105832;1252;61412;-72
2023/07/04 04:37:37;;;;;;;6.40;5.70;;;;;;;24.24;57.15;100184.70;105882;1254;62407;-72
2023/07/04 04:40:06;;;;;;;7.30;5.50;;;;;;;24.31;56.77;100184.98;105970;1256;61339;-72
2023/07/04 04:42:34;;;;;;;8.20;5.20;;;;;;;24.37;56.26;100185.08;105885;1254;61231;-73
2023/07/04 04:45:04;;;;;;;5.90;4.90;;;;;;;24.46;55.89;100185.28;105984;1254;74550;-73
2023/07/04 04:47:34;;;;;;;6.40;5.10;;;;;;;24.51;55.17;100189.61;106057;1253;61167;-73
2023/07/04 04:50:01;;;;;;;7.00;4.70;;;;;;;24.56;54.57;100190.42;105834;1253;62523;-73
2023/07/04 04:52:29;;;;;;;6.80;5.00;;;;;;;24.60;54.10;100190.84;105737;1253;61329;-73
2023/07/04 04:54:57;;;;;;;7.70;5.40;;;;;;;24.66;53.69;100193.09;105769;1254;61230;-73
2023/07/04 04:57:23;;;;;;;6.00;5.10;;;;;;;24.73;53.50;100197.29;105748;1256;66501;-73
2023/07/04 04:59:50;;;;;;;5.90;4.80;;;;;;;24.80;53.02;100202.16;105791;1254;61333;-72
2023/07/04 05:02:17;;;;;;;8.70;5.40;;;;;;;24.88;52.77;100201.27;105767;1257;64006;-72
2023/07/04 05:04:44;;;;;;;6.60;4.60;;;;;;;24.97;52.11;100199.52;105929;1254;61153;-71
2023/07/04 05:07:12;;;;;;;5.40;4.90;;;;;;;25.04;51.73;100201.89;105848;1254;61234;-73
2023/07/04 05:09:39;;;;;;;6.80;5.10;;;;;;;25.11;51.52;100206.45;105806;1256;65963;-71
2023/07/04 05:12:06;;;;;;;7.80;4.70;;;;;;;25.20;51.24;100206.96;105609;1255;61365;-71
2023/07/04 05:14:33;;;;;;;8.30;5.10;;;;;;;25.29;51.24;100210.70;105736;1254;64526;-71
2023/07/04 05:17:00;;;;;;;8.00;5.40;;;;;;;25.37;51.05;100215.61;105944;1254;61259;-71
2023/07/04 05:19:27;;;;;;;9.10;5.00;;;;;;;25.46;50.77;100216.54;105796;1253;61292;-72
2023/07/04 05:21:53;;;;;;;7.90;5.20;;;;;;;25.54;50.43;100216.38;105768;1256;61209;-71
2023/07/04 05:24:20;;;;;;;5.40;4.80;;;;;;;25.60;49.82;100214.98;105816;1256;61326;-71
2023/07/04 05:26:48;;;;;;;5.50;4.70;;;;;;;25.63;49.55;100216.64;105677;1258;64217;-71
2023/07/04 05:29:14;;;;;;;6.70;4.80;;;;;;;25.67;49.41;100222.23;105784;1256;61233;-72
2023/07/04 05:31:41;;;;;;;7.60;4.90;;;;;;;25.71;49.19;100222.85;105761;1254;61224;-71
2023/07/04 05:34:08;;;;;;;8.00;4.90;;;;;;;25.74;49.07;100226.14;105690;1254;66101;-71
2023/07/04 05:36:37;;;;;;;7.20;4.90;;;;;;;25.76;48.68;100229.31;105878;1256;61104;-72
2023/07/04 05:39:06;;;;;;;6.50;5.00;;;;;;;25.77;48.36;100233.89;105600;1254;64028;-72
2023/07/04 05:41:35;;;;;;;5.90;4.80;;;;;;;25.77;48.13;100234.36;105716;1252;61336;-72
2023/07/04 05:44:06;;;;;;;6.20;5.00;;;;;;;25.78;48.23;100237.59;105949;1253;61314;-72
2023/07/04 05:46:35;;;;;;;6.40;5.30;;;;;;;25.80;48.32;100236.48;105695;1257;66011;-72
2023/07/04 05:49:03;;;;;;;5.40;4.70;;;;;;;25.81;48.33;100235.39;105772;1256;61354;-72
2023/07/04 05:51:29;;;;;;;6.70;4.80;;;;;;;25.85;48.35;100237.30;105905;1254;63819;-72
2023/07/04 05:53:56;;;;;;;6.70;4.80;;;;;;;25.91;48.35;100240.56;105897;1256;61225;-72
2023/07/04 05:56:26;;;;;;;9.50;4.70;;;;;;;25.99;47.88;100241.77;105785;1254;61341;-71
2023/07/04 05:58:54;;;;;;;5.70;4.80;;;;;;;26.02;47.15;100245.98;105935;1254;64751;-72
2023/07/04 06:01:42;;;;;;;7.20;5.30;;;;;;;26.03;46.71;100246.09;105990;1254;61671;-76
2023/07/04 06:04:10;;;;;;;8.80;5.10;;;;;;;26.05;46.35;100245.81;105885;1254;62828;-74
2023/07/04 06:06:45;;;;;;;7.20;4.60;;;;;;;26.08;46.13;100250.16;105765;1252;61339;-74
2023/07/04 06:09:14;;;;;;;6.80;4.80;;;;;;;26.15;46.13;100255.98;105737;1253;61202;-72
2023/07/04 06:11:45;;;;;;;6.60;4.70;;;;;;;26.23;46.02;100258.17;105872;1256;65875;-76
2023/07/04 06:14:25;;;;;;;6.40;4.70;;;;;;;26.36;46.28;100253.66;105875;1254;61256;-73
2023/07/04 06:16:52;;;;;;;6.30;4.50;;;;;;;26.47;45.90;100250.69;106060;1256;62755;-73
2023/07/04 06:19:21;;;;;;;7.10;4.50;;;;;;;26.56;45.36;100251.11;105978;1256;61244;-71
2023/07/04 06:21:48;;;;;;;7.10;5.10;;;;;;;26.64;44.99;100252.09;106009;1253;61234;-71
2023/07/04 06:24:15;;;;;;;8.80;4.20;;;;;;;26.71;44.59;100253.95;105969;1256;64458;-71
2023/07/04 06:26:43;;;;;;;9.30;4.60;;;;;;;26.80;44.00;100260.14;105831;1254;61303;-71
2023/07/04 06:29:09;;;;;;;4.90;4.40;;;;;;;26.87;43.85;100259.30;105783;1256;62575;-71
2023/07/04 06:31:36;;;;;;;8.70;4.00;;;;;;;26.96;43.99;100262.13;105786;1254;61268;-71
2023/07/04 06:34:03;;;;;;;11.60;4.50;;;;;;;27.05;43.94;100264.51;105830;1254;61158;-72
2023/07/04 06:36:30;;;;;;;7.30;4.40;;;;;;;27.12;43.90;100265.54;105947;1256;66862;-72
2023/07/04 06:39:00;;;;;;;5.20;4.10;;;;;;;27.22;43.63;100265.25;106011;1254;61355;-72
2023/07/04 06:41:27;;;;;;;6.50;4.20;;;;;;;27.35;43.28;100263.41;106017;1254;64871;-71
2023/07/04 06:43:54;;;;;;;9.00;4.10;;;;;;;27.48;43.08;100264.91;105772;1252;61222;-72
2023/07/04 06:46:21;;;;;;;6.60;3.80;;;;;;;27.58;42.61;100264.98;105767;1252;62261;-72
2023/07/04 06:48:49;;;;;;;6.00;4.00;;;;;;;27.68;42.35;100265.98;105895;1257;65973;-71
2023/07/04 06:51:16;;;;;;;5.80;4.30;;;;;;;27.72;42.14;100266.30;105996;1254;61240;-71
2023/07/04 06:53:44;;;;;;;5.00;4.00;;;;;;;27.79;41.96;100264.30;105855;1256;63847;-71
2023/07/04 06:56:11;;;;;;;6.90;4.50;;;;;;;27.85;41.93;100266.00;106023;1253;61196;-72
2023/07/04 06:58:40;;;;;;;4.70;4.10;;;;;;;27.87;41.81;100264.84;106026;1254;61241;-72
2023/07/04 07:01:08;;;;;;;5.50;4.50;;;;;;;27.87;41.92;100258.27;105702;1254;65883;-71
2023/07/04 07:03:35;;;;;;;6.40;4.20;;;;;;;27.90;41.88;100257.65;105568;1256;157569;-71
2023/07/04 07:06:03;;;;;;;8.80;4.30;;;;;;;27.94;41.99;100260.40;105662;1255;63906;-71
2023/07/04 07:08:32;;;;;;;6.60;4.10;;;;;;;28.04;41.68;100255.48;105535;1253;61254;-71
2023/07/04 07:11:00;;;;;;;5.50;4.20;;;;;;;28.11;41.61;100257.77;105771;1254;61311;-72
2023/07/04 07:13:29;;;;;;;6.10;4.10;;;;;;;28.22;41.30;100256.36;105671;1258;66099;-73
2023/07/04 07:16:06;;;;;;;6.90;4.00;;;;;;;28.31;40.85;100258.14;105647;1254;61355;-72
2023/07/04 07:18:34;;;;;;;7.80;4.10;;;;;;;28.31;40.50;100262.29;105690;1254;63867;-73
2023/07/04 07:21:04;;;;;;;4.50;3.80;;;;;;;28.31;40.40;100264.20;105805;1254;61332;-71
2023/07/04 07:23:33;;;;;;;7.20;4.00;;;;;;;28.35;40.21;100262.41;105680;1254;61256;-72
2023/07/04 07:26:01;;;;;;;6.80;4.10;;;;;;;28.38;40.00;100263.45;105995;1252;65911;-72
2023/07/04 07:28:31;;;;;;;5.10;4.10;;;;;;;28.40;40.04;100259.86;105662;1254;61348;-72
2023/07/04 07:31:09;;;;;;;8.70;3.80;;;;;;;28.52;40.27;100261.39;105705;1257;65979;-72
2023/07/04 07:33:39;;;;;;;5.30;4.00;;;;;;;28.69;40.04;100261.39;105856;1254;61439;-72
2023/07/04 07:36:12;;;;;;;5.90;3.90;;;;;;;28.82;39.73;100261.73;106039;1254;61238;-73
2023/07/04 07:38:39;;;;;;;;;;;;;;;28.89;38.87;100261.17;105794;1256;66018;-72
2023/07/04 07:41:06;;;;;;;6.40;3.80;;;;;;;28.95;38.44;100262.15;105713;1256;61243;-73
2023/07/04 07:43:34;;;;;;;7.20;4.10;;;;;;;29.01;38.81;100261.66;105887;1254;64065;-73
2023/07/04 07:46:01;;;;;;;8.70;4.20;;;;;;;29.07;38.64;100259.55;105779;1254;61131;-73
2023/07/04 07:48:28;;;;;;;5.70;4.30;;;;;;;29.14;38.51;100261.73;105801;1252;61248;-73
2023/07/04 07:50:56;;;;;;;3.90;3.50;;;;;;;29.21;38.35;100263.52;106045;1254;66080;-72
2023/07/04 07:53:23;;;;;;;7.50;4.40;;;;;;;29.28;38.35;100262.88;105919;1254;61235;-72
2023/07/04 07:55:50;;;;;;;5.90;3.90;;;;;;;29.39;38.10;100266.96;105883;1254;63956;-72
2023/07/04 07:58:17;;;;;;;5.90;4.00;;;;;;;29.51;38.07;100271.09;105717;1254;61231;-72
2023/07/04 08:00:44;;;;;;;5.20;4.00;;;;;;;29.64;37.66;100272.40;105862;1254;61212;-71
2023/07/04 08:03:11;;;;;;;8.60;4.10;;;;;;;29.76;37.65;100269.77;105724;1254;66001;-71
2023/07/04 08:05:41;;;;;;;6.40;4.20;;;;;;;29.82;37.27;100268.67;105732;1254;61058;-72
2023/07/04 08:08:08;;;;;;;7.80;3.90;;;;;;;29.87;36.90;100267.39;105845;1254;62750;-72
2023/07/04 08:10:39;;;;;;;5.60;3.90;;;;;;;29.91;36.52;100267.38;105868;1254;61138;-72
2023/07/04 08:13:07;;;;;;;40.90;7.40;;;;;;;29.95;36.54;100268.79;105898;1254;61198;-72
2023/07/04 08:15:36;;;;;;;9.80;4.30;;;;;;;29.93;35.90;100268.83;105816;1254;65915;-72
2023/07/04 08:18:07;;;;;;;10.00;4.10;;;;;;;29.91;36.08;100272.60;105628;1259;61394;-72
2023/07/04 08:20:36;;;;;;;6.00;3.70;;;;;;;29.97;36.26;100273.02;105670;1254;64125;-72
2023/07/04 08:23:03;;;;;;;6.20;3.70;;;;;;;30.05;36.24;100276.23;105928;1254;61230;-72
2023/07/04 08:25:30;;;;;;;13.10;4.50;;;;;;;30.18;35.98;100277.30;105965;1254;61381;-72
2023/07/04 08:27:57;;;;;;;4.80;3.60;;;;;;;30.27;35.41;100273.76;105922;1254;66283;-72
2023/07/04 08:30:24;;;;;;;5.30;3.70;;;;;;;30.30;34.63;100269.32;105760;1256;61202;-73
2023/07/04 08:32:53;;;;;;;11.10;3.70;;;;;;;30.33;34.74;100268.70;105912;1254;63844;-72
2023/07/04 08:35:20;;;;;;;9.10;4.10;;;;;;;30.44;34.85;100272.15;105717;1254;61245;-72
2023/07/04 08:37:47;;;;;;;10.00;4.10;;;;;;;30.52;34.17;100271.11;105975;1254;61221;-72
2023/07/04 08:40:14;;;;;;;11.70;4.60;;;;;;;30.55;33.84;100274.52;105955;1257;65880;-73
2023/07/04 08:42:42;;;;;;;8.70;3.40;;;;;;;30.57;33.75;100278.45;105818;1254;61330;-72
2023/07/04 08:45:12;;;;;;;7.70;4.00;;;;;;;30.65;34.03;100279.11;105646;1259;62789;-72
2023/07/04 08:47:40;;;;;;;5.10;3.60;;;;;;;30.79;33.99;100278.62;105750;1254;61340;-72
2023/07/04 08:50:20;;;;;;;5.20;3.60;;;;;;;30.95;33.83;100279.91;105913;1254;61283;-73
2023/07/04 08:52:59;;;;;;;7.50;3.80;;;;;;;31.11;33.36;100279.73;105803;1254;64907;-72
2023/07/04 08:55:26;;;;;;;8.40;3.70;;;;;;;31.25;33.12;100285.95;105753;1257;61359;-74
2023/07/04 08:57:57;;;;;;;7.20;3.60;;;;;;;31.37;32.84;100288.29;105543;1254;63889;-73
2023/07/04 09:00:36;;;;;;;7.10;3.50;;;;;;;31.47;32.56;100290.11;105725;1254;61240;-72
2023/07/04 09:03:15;;;;;;;4.40;3.70;;;;;;;31.52;32.07;100286.05;105830;1256;61128;-74
2023/07/04 09:05:52;;;;;;;4.20;3.60;;;;;;;31.47;31.83;100287.59;105989;1256;66080;-73
2023/07/04 09:08:42;;;;;;;8.70;3.70;;;;;;;31.41;31.86;100288.15;106043;1253;61183;-72
2023/07/04 09:11:10;;;;;;;6.10;3.80;;;;;;;31.42;31.67;100284.93;105951;1256;64109;-72
2023/07/04 09:13:42;;;;;;;14.30;4.00;;;;;;;31.46;31.68;100280.33;105721;1254;61279;-72
2023/07/04 09:16:18;;;;;;;8.70;3.90;;;;;;;31.52;31.95;100277.69;105741;1254;61212;-72
2023/07/04 09:19:03;;;;;;;5.20;3.60;;;;;;;31.64;32.14;100283.94;105814;1254;65919;-71
2023/07/04 09:21:30;;;;;;;7.80;3.50;;;;;;;31.77;31.64;100281.21;105886;1256;61256;-72
2023/07/04 09:23:58;;;;;;;11.90;4.10;;;;;;;31.86;31.43;100280.89;105906;1254;63892;-68
2023/07/04 09:26:49;;;;;;;5.40;3.70;;;;;;;31.95;31.14;100282.14;105903;1254;61224;-72
2023/07/04 09:29:20;;;;;;;7.10;3.90;;;;;;;32.02;30.63;100280.37;105963;1252;61250;-72
2023/07/04 09:31:53;;;;;;;5.90;3.80;;;;;;;32.11;30.79;100282.17;105774;1254;64843;-72
2023/07/04 09:34:31;;;;;;;5.00;3.90;;;;;;;32.23;30.92;100280.96;105792;1254;61215;-72
2023/07/04 09:37:01;;;;;;;5.70;3.80;;;;;;;32.32;30.32;100284.52;105804;1254;64023;-72
2023/07/04 09:39:58;;;;;;;9.70;3.80;;;;;;;32.42;30.27;100278.83;106058;1256;61336;-73
2023/07/04 09:42:31;;;;;;;5.80;3.60;;;;;;;32.56;29.50;100278.97;105688;1254;61307;-72
2023/07/04 09:45:08;;;;;;;7.70;3.40;;;;;;;32.67;29.69;100278.98;105912;1252;66027;-73
2023/07/04 09:47:36;;;;;;;8.60;3.80;;;;;;;32.76;29.36;100275.40;106048;1256;61772;-73
2023/07/04 09:50:07;;;;;;;5.30;3.70;;;;;;;32.79;29.02;100273.54;105969;1259;64048;-73
2023/07/04 09:52:35;;;;;;;5.00;3.70;;;;;;;32.80;28.83;100271.03;105997;1256;61222;-73
2023/07/04 09:55:16;;;;;;;4.80;3.60;;;;;;;32.86;28.75;100276.77;105764;1254;61219;-74
2023/07/04 09:57:44;;;;;;;7.10;3.90;;;;;;;32.91;28.95;100275.73;105856;1254;64714;-73
2023/07/04 10:00:24;;;;;;;7.20;3.60;;;;;;;32.98;28.98;100273.88;106020;1256;61311;-73
2023/07/04 10:02:54;;;;;;;10.20;4.40;;;;;;;33.02;28.82;100276.41;105995;1254;64066;-73
2023/07/04 10:05:32;;;;;;;5.50;3.60;;;;;;;33.09;28.66;100276.79;105855;1254;61221;-73
2023/07/04 10:08:07;;;;;;;5.70;3.80;;;;;;;33.18;28.38;100275.09;105825;1259;61269;-73
2023/07/04 10:10:43;;;;;;;5.60;3.60;;;;;;;33.26;28.17;100271.86;105686;1258;66055;-73
2023/07/04 10:13:11;;;;;;;8.40;3.70;;;;;;;33.28;27.84;100270.98;105775;1254;61212;-75
2023/07/04 10:15:40;;;;;;;9.20;3.40;;;;;;;33.32;27.94;100271.31;105736;1259;63804;-73
2023/07/04 10:18:31;;;;;;;6.80;3.40;;;;;;;33.48;28.90;100276.69;105810;1254;61389;-74
2023/07/04 10:20:59;;;;;;;6.40;3.60;;;;;;;33.73;28.54;100280.76;105858;1255;61327;-75
2023/07/04 10:23:28;;;;;;;7.30;3.60;;;;;;;33.92;27.78;100273.88;105812;1254;66041;-74
2023/07/04 10:25:56;;;;;;;4.40;3.50;;;;;;;34.08;27.77;100271.20;105855;1257;61310;-74
2023/07/04 10:28:27;;;;;;;8.30;3.90;;;;;;;34.24;28.05;100272.17;106117;1251;64178;-73
2023/07/04 10:31:05;;;;;;;6.00;3.60;;;;;;;34.38;27.71;100274.16;105914;1251;61318;-74
2023/07/04 10:33:40;;;;;;;6.40;3.80;;;;;;;34.50;27.49;100275.70;105934;1252;61308;-74
2023/07/04 10:36:08;;;;;;;4.30;3.50;;;;;;;34.63;27.52;100274.41;106107;1251;64878;-74
2023/07/04 10:38:40;;;;;;;6.00;3.80;;;;;;;34.75;27.11;100277.59;106107;1253;61365;-74
2023/07/04 10:41:18;;;;;;;6.90;3.60;;;;;;;34.84;26.80;100280.77;105738;1254;64231;-74
2023/07/04 10:43:49;;;;;;;5.10;4.00;;;;;;;34.84;26.05;100277.46;105646;1254;61284;-73
2023/07/04 10:46:20;;;;;;;5.40;3.50;;;;;;;34.78;26.57;100275.20;105685;1254;61256;-73
2023/07/04 10:48:49;;;;;;;6.60;3.40;;;;;;;34.85;26.99;100275.10;105703;1254;66538;-73
2023/07/04 10:51:19;;;;;;;5.00;3.40;;;;;;;35.02;27.02;100275.49;105949;1256;61247;-73
2023/07/04 10:53:47;;;;;;;4.90;3.50;;;;;;;35.24;26.45;100277.07;105734;1259;63913;-75
2023/07/04 10:56:24;;;;;;;6.60;3.30;;;;;;;35.45;26.59;100276.23;105861;1254;61345;-74
2023/07/04 10:58:54;;;;;;;8.50;3.30;;;;;;;35.67;26.45;100278.02;105733;1259;61447;-74
2023/07/04 11:01:28;;;;;;;7.90;3.30;;;;;;;35.82;26.10;100274.06;105827;1254;65725;-73
2023/07/04 11:04:31;;;;;;;7.30;3.60;;;;;;;36.00;25.92;100270.19;105888;1256;61239;-73
2023/07/04 11:07:23;;;;;;;6.40;3.80;;;;;;;36.21;25.74;100271.15;105722;1254;64159;-72
2023/07/04 11:09:57;;;;;;;5.30;3.60;;;;;;;36.37;25.25;100269.30;105811;1257;61199;-73
2023/07/04 11:12:27;;;;;;;6.10;3.70;;;;;;;36.50;25.58;100271.94;105911;1253;61218;-75
2023/07/04 11:15:01;;;;;;;5.90;3.50;;;;;;;36.71;25.62;100275.48;105984;1256;66117;-74
2023/07/04 11:17:27;;;;;;;5.20;3.60;;;;;;;36.93;25.09;100271.39;105813;1259;61333;-79
2023/07/04 11:19:56;;;;;;;5.70;3.60;;;;;;;37.05;24.60;100270.97;105978;1254;64121;-73
2023/07/04 11:22:46;;;;;;;5.40;3.80;;;;;;;37.17;24.67;100273.10;105892;1255;61320;-72
2023/07/04 11:25:41;;;;;;;5.20;3.40;;;;;;;37.31;24.26;100275.93;105813;1252;61252;-73
2023/07/04 11:28:12;;;;;;;4.90;3.60;;;;;;;37.37;24.32;100274.31;105826;1256;66000;-74